OMD1DF EGLL-LSGG
Flight info
| Callsign | OMD1DF |
|---|---|
| Flight time | N/A |
| Altitude | 41000 |
| Route | MODMI M185 MID UL612 VEULE DCT PEKIM DCT PILUL DCT PIMUP/N0446F270 DCT PIXIS DCT PIBAT/N0420F230 DCT LUSAR |
| Aircraft | A343/H-SDE2E3FGHIJ4J5M1RWXY/LB1D1 |
Departure
| Time | 2026-04-30 12:27 |
|---|---|
| Airport | London Heathrow Airport (EGLL) |
Arrival
| Time | N/A |
|---|---|
| Airport | Geneva International Airport (LSGG) |
| Time | Latitude | Longitude | Altitude | Speed | Heading |
|---|---|---|---|---|---|
| 2026-04-30 11:49 | 51.47368 | -0.43075 | 94 ft | 0 kts | 139° |
| 2026-04-30 12:10 | 51.47384 | -0.43096 | 92 ft | 4 kts | 139° |
| 2026-04-30 12:11 | 51.47404 | -0.43124 | 92 ft | 4 kts | 139° |
| 2026-04-30 12:11 | 51.47422 | -0.43149 | 91 ft | 4 kts | 150° |
| 2026-04-30 12:11 | 51.47444 | -0.43154 | 90 ft | 4 kts | 208° |
| 2026-04-30 12:11 | 51.47463 | -0.43132 | 94 ft | 1 kts | 224° |
| 2026-04-30 12:12 | 51.47464 | -0.43131 | 94 ft | 3 kts | 224° |
| 2026-04-30 12:15 | 51.47463 | -0.43132 | 94 ft | 2 kts | 224° |
| 2026-04-30 12:15 | 51.47428 | -0.43187 | 94 ft | 12 kts | 224° |
| 2026-04-30 12:16 | 51.47366 | -0.43283 | 94 ft | 12 kts | 225° |
| 2026-04-30 12:16 | 51.47303 | -0.43372 | 93 ft | 12 kts | 220° |
| 2026-04-30 12:16 | 51.47239 | -0.43460 | 93 ft | 12 kts | 220° |
| 2026-04-30 12:16 | 51.47177 | -0.43550 | 93 ft | 12 kts | 222° |
| 2026-04-30 12:17 | 51.47008 | -0.43612 | 89 ft | 14 kts | 180° |
| 2026-04-30 12:17 | 51.46909 | -0.43603 | 90 ft | 16 kts | 175° |
| 2026-04-30 12:17 | 51.46791 | -0.43601 | 89 ft | 17 kts | 181° |
| 2026-04-30 12:18 | 51.46679 | -0.43631 | 92 ft | 15 kts | 225° |
| 2026-04-30 12:18 | 51.46667 | -0.43793 | 86 ft | 16 kts | 269° |
| 2026-04-30 12:18 | 51.46667 | -0.43975 | 85 ft | 17 kts | 269° |
| 2026-04-30 12:18 | 51.46666 | -0.44184 | 87 ft | 20 kts | 269° |
| 2026-04-30 12:19 | 51.46664 | -0.44415 | 90 ft | 21 kts | 270° |
| 2026-04-30 12:19 | 51.46665 | -0.44662 | 92 ft | 23 kts | 270° |
| 2026-04-30 12:19 | 51.46665 | -0.44914 | 93 ft | 22 kts | 269° |
| 2026-04-30 12:19 | 51.46665 | -0.45167 | 92 ft | 23 kts | 270° |
| 2026-04-30 12:20 | 51.46662 | -0.45428 | 87 ft | 24 kts | 269° |
| 2026-04-30 12:20 | 51.46660 | -0.45703 | 85 ft | 25 kts | 269° |
| 2026-04-30 12:20 | 51.46658 | -0.45976 | 89 ft | 24 kts | 271° |
| 2026-04-30 12:20 | 51.46659 | -0.46231 | 93 ft | 22 kts | 269° |
| 2026-04-30 12:21 | 51.46657 | -0.46458 | 95 ft | 20 kts | 269° |
| 2026-04-30 12:21 | 51.46659 | -0.46673 | 96 ft | 19 kts | 271° |
| 2026-04-30 12:21 | 51.46659 | -0.46888 | 94 ft | 20 kts | 269° |
| 2026-04-30 12:21 | 51.46656 | -0.47112 | 91 ft | 21 kts | 269° |
| 2026-04-30 12:22 | 51.46652 | -0.47355 | 85 ft | 22 kts | 269° |
| 2026-04-30 12:22 | 51.46654 | -0.47600 | 86 ft | 22 kts | 272° |
| 2026-04-30 12:22 | 51.46654 | -0.47838 | 88 ft | 21 kts | 269° |
| 2026-04-30 12:22 | 51.46653 | -0.48058 | 91 ft | 18 kts | 270° |
| 2026-04-30 12:23 | 51.46652 | -0.48254 | 91 ft | 17 kts | 270° |
| 2026-04-30 12:23 | 51.46651 | -0.48437 | 92 ft | 16 kts | 269° |
| 2026-04-30 12:23 | 51.46650 | -0.48616 | 91 ft | 16 kts | 269° |
| 2026-04-30 12:23 | 51.46626 | -0.48751 | 94 ft | 7 kts | 212° |
| 2026-04-30 12:24 | 51.46616 | -0.48757 | 89 ft | 0 kts | 200° |
| 2026-04-30 12:24 | 51.46600 | -0.48767 | 92 ft | 7 kts | 200° |
| 2026-04-30 12:25 | 51.46533 | -0.48784 | 93 ft | 10 kts | 174° |
| 2026-04-30 12:25 | 51.46487 | -0.48728 | 95 ft | 8 kts | 121° |
| 2026-04-30 12:25 | 51.46478 | -0.48634 | 91 ft | 3 kts | 91° |
| 2026-04-30 12:26 | 51.46478 | -0.48632 | 91 ft | 1 kts | 91° |
| 2026-04-30 12:26 | 51.46478 | -0.48453 | 91 ft | 39 kts | 89° |
| 2026-04-30 12:26 | 51.46485 | -0.47422 | 89 ft | 98 kts | 90° |
| 2026-04-30 12:27 | 51.46488 | -0.46606 | 93 ft | 122 kts | 89° |
| 2026-04-30 12:27 | 51.46492 | -0.45066 | 128 ft | 150 kts | 89° |
| 2026-04-30 12:27 | 51.46462 | -0.43421 | 577 ft | 150 kts | 94° |
| 2026-04-30 12:27 | 51.46380 | -0.41703 | 1004 ft | 156 kts | 104° |
| 2026-04-30 12:28 | 51.45863 | -0.40227 | 1655 ft | 150 kts | 131° |
| 2026-04-30 12:28 | 51.45183 | -0.39016 | 2197 ft | 144 kts | 131° |
| 2026-04-30 12:28 | 51.44309 | -0.37993 | 2417 ft | 170 kts | 154° |
| 2026-04-30 12:28 | 51.43060 | -0.37667 | 2735 ft | 194 kts | 178° |
| 2026-04-30 12:29 | 51.41677 | -0.37795 | 3124 ft | 210 kts | 180° |
| 2026-04-30 12:29 | 51.40148 | -0.37984 | 3517 ft | 229 kts | 181° |
| 2026-04-30 12:29 | 51.38508 | -0.38165 | 4050 ft | 242 kts | 180° |
| 2026-04-30 12:29 | 51.36812 | -0.38435 | 4813 ft | 247 kts | 186° |
| 2026-04-30 12:30 | 51.35144 | -0.39238 | 5582 ft | 256 kts | 199° |
| 2026-04-30 12:30 | 51.33535 | -0.40552 | 5974 ft | 260 kts | 202° |
| 2026-04-30 12:30 | 51.31921 | -0.41832 | 6423 ft | 264 kts | 201° |
| 2026-04-30 12:30 | 51.30261 | -0.43131 | 7176 ft | 266 kts | 201° |
| 2026-04-30 12:31 | 51.28591 | -0.44441 | 7945 ft | 267 kts | 201° |
| 2026-04-30 12:31 | 51.26909 | -0.45763 | 8620 ft | 271 kts | 202° |
| 2026-04-30 12:31 | 51.25203 | -0.47125 | 9294 ft | 275 kts | 202° |
| 2026-04-30 12:31 | 51.23480 | -0.48503 | 9977 ft | 278 kts | 202° |
| 2026-04-30 12:32 | 51.21753 | -0.49880 | 10504 ft | 286 kts | 201° |
| 2026-04-30 12:32 | 51.19917 | -0.51307 | 10791 ft | 301 kts | 201° |
| 2026-04-30 12:32 | 51.17984 | -0.52788 | 11077 ft | 316 kts | 201° |
| 2026-04-30 12:32 | 51.15953 | -0.54339 | 11321 ft | 331 kts | 201° |
| 2026-04-30 12:33 | 51.13838 | -0.55962 | 11587 ft | 345 kts | 202° |
| 2026-04-30 12:33 | 51.11623 | -0.57667 | 11849 ft | 359 kts | 202° |
| 2026-04-30 12:33 | 51.09315 | -0.59317 | 12185 ft | 367 kts | 196° |
| 2026-04-30 12:33 | 51.06829 | -0.60210 | 12684 ft | 367 kts | 182° |
| 2026-04-30 12:34 | 51.04320 | -0.60032 | 13226 ft | 366 kts | 166° |
| 2026-04-30 12:34 | 51.01914 | -0.58689 | 13786 ft | 366 kts | 150° |
| 2026-04-30 12:34 | 50.99693 | -0.56651 | 14333 ft | 369 kts | 147° |
| 2026-04-30 12:34 | 50.97534 | -0.54409 | 14882 ft | 372 kts | 145° |
| 2026-04-30 12:35 | 50.95396 | -0.52071 | 15453 ft | 374 kts | 144° |
| 2026-04-30 12:35 | 50.93257 | -0.49702 | 15994 ft | 376 kts | 145° |
| 2026-04-30 12:35 | 50.91121 | -0.47355 | 16510 ft | 379 kts | 145° |
| 2026-04-30 12:35 | 50.88937 | -0.44983 | 17054 ft | 381 kts | 146° |
| 2026-04-30 12:36 | 50.86729 | -0.42613 | 17594 ft | 383 kts | 146° |
| 2026-04-30 12:36 | 50.84507 | -0.40247 | 18157 ft | 385 kts | 146° |
| 2026-04-30 12:36 | 50.82263 | -0.37871 | 18659 ft | 388 kts | 146° |
| 2026-04-30 12:36 | 50.80011 | -0.35493 | 19120 ft | 391 kts | 146° |
| 2026-04-30 12:37 | 50.77767 | -0.33128 | 19584 ft | 393 kts | 146° |
| 2026-04-30 12:37 | 50.75489 | -0.30729 | 20038 ft | 394 kts | 146° |
| 2026-04-30 12:37 | 50.73189 | -0.28308 | 20529 ft | 396 kts | 146° |
| 2026-04-30 12:37 | 50.70885 | -0.25885 | 21008 ft | 398 kts | 146° |
| 2026-04-30 12:38 | 50.68602 | -0.23481 | 21457 ft | 400 kts | 146° |
| 2026-04-30 12:38 | 50.66283 | -0.21042 | 21900 ft | 402 kts | 146° |
| 2026-04-30 12:38 | 50.63944 | -0.18591 | 22358 ft | 404 kts | 146° |
| 2026-04-30 12:38 | 50.61601 | -0.16140 | 22826 ft | 405 kts | 145° |
| 2026-04-30 12:39 | 50.59249 | -0.13682 | 23241 ft | 407 kts | 145° |
| 2026-04-30 12:39 | 50.56877 | -0.11206 | 23641 ft | 409 kts | 145° |
| 2026-04-30 12:39 | 50.54527 | -0.08755 | 23986 ft | 411 kts | 145° |
| 2026-04-30 12:39 | 50.52129 | -0.06257 | 24158 ft | 414 kts | 145° |
| 2026-04-30 12:40 | 50.49728 | -0.03758 | 24179 ft | 414 kts | 145° |
| 2026-04-30 12:40 | 50.47323 | -0.01259 | 24179 ft | 414 kts | 145° |
| 2026-04-30 12:40 | 50.44911 | 0.01243 | 24177 ft | 415 kts | 145° |
| 2026-04-30 12:40 | 50.42501 | 0.03747 | 24181 ft | 416 kts | 145° |
| 2026-04-30 12:41 | 50.40081 | 0.06255 | 24181 ft | 416 kts | 145° |
| 2026-04-30 12:41 | 50.37694 | 0.08723 | 24179 ft | 416 kts | 145° |
| 2026-04-30 12:41 | 50.35275 | 0.11224 | 24178 ft | 416 kts | 145° |
| 2026-04-30 12:41 | 50.32855 | 0.13722 | 24170 ft | 416 kts | 145° |
| 2026-04-30 12:42 | 50.30435 | 0.16213 | 24168 ft | 416 kts | 145° |
| 2026-04-30 12:42 | 50.28011 | 0.18706 | 24173 ft | 416 kts | 145° |
| 2026-04-30 12:42 | 50.25591 | 0.21191 | 24173 ft | 416 kts | 145° |
| 2026-04-30 12:42 | 50.23204 | 0.23640 | 24165 ft | 416 kts | 145° |
| 2026-04-30 12:43 | 50.20782 | 0.26123 | 24218 ft | 417 kts | 145° |
| 2026-04-30 12:43 | 50.18345 | 0.28629 | 24546 ft | 418 kts | 145° |
| 2026-04-30 12:43 | 50.15917 | 0.31127 | 24927 ft | 418 kts | 145° |
| 2026-04-30 12:43 | 50.13509 | 0.33603 | 25224 ft | 420 kts | 145° |
| 2026-04-30 12:44 | 50.11054 | 0.36124 | 25528 ft | 422 kts | 145° |
| 2026-04-30 12:44 | 50.08581 | 0.38660 | 25822 ft | 424 kts | 145° |
| 2026-04-30 12:44 | 50.06104 | 0.41196 | 26136 ft | 426 kts | 145° |
| 2026-04-30 12:44 | 50.03649 | 0.43706 | 26406 ft | 428 kts | 146° |
| 2026-04-30 12:45 | 50.01148 | 0.46260 | 26662 ft | 430 kts | 145° |
| 2026-04-30 12:45 | 49.98634 | 0.48825 | 26865 ft | 434 kts | 146° |
| 2026-04-30 12:45 | 49.96096 | 0.51409 | 27149 ft | 436 kts | 145° |
| 2026-04-30 12:45 | 49.93551 | 0.53998 | 27430 ft | 437 kts | 146° |
| 2026-04-30 12:46 | 49.90999 | 0.56590 | 27686 ft | 439 kts | 146° |
| 2026-04-30 12:46 | 49.88435 | 0.59192 | 27952 ft | 441 kts | 146° |
| 2026-04-30 12:46 | 49.85953 | 0.61909 | 28183 ft | 442 kts | 140° |
| 2026-04-30 12:46 | 49.83617 | 0.65014 | 28435 ft | 443 kts | 137° |
| 2026-04-30 12:47 | 49.81322 | 0.68244 | 28680 ft | 445 kts | 137° |
| 2026-04-30 12:47 | 49.79050 | 0.71529 | 28913 ft | 447 kts | 136° |
| 2026-04-30 12:47 | 49.76786 | 0.74842 | 29247 ft | 446 kts | 136° |
| 2026-04-30 12:47 | 49.74533 | 0.78143 | 29607 ft | 445 kts | 136° |
| 2026-04-30 12:48 | 49.72312 | 0.81389 | 29920 ft | 445 kts | 136° |
| 2026-04-30 12:48 | 49.70052 | 0.84678 | 30222 ft | 445 kts | 136° |
| 2026-04-30 12:48 | 49.67793 | 0.87952 | 30471 ft | 445 kts | 136° |
| 2026-04-30 12:48 | 49.65523 | 0.91234 | 30727 ft | 444 kts | 136° |
| 2026-04-30 12:49 | 49.63264 | 0.94492 | 31007 ft | 443 kts | 136° |
| 2026-04-30 12:49 | 49.61031 | 0.97705 | 31260 ft | 443 kts | 136° |
| 2026-04-30 12:49 | 49.58774 | 1.00950 | 31503 ft | 443 kts | 136° |
| 2026-04-30 12:49 | 49.56511 | 1.04198 | 31763 ft | 442 kts | 136° |
| 2026-04-30 12:50 | 49.54258 | 1.07429 | 32008 ft | 442 kts | 136° |
| 2026-04-30 12:50 | 49.52037 | 1.10610 | 32251 ft | 442 kts | 136° |
| 2026-04-30 12:50 | 49.49780 | 1.13837 | 32462 ft | 442 kts | 136° |
| 2026-04-30 12:50 | 49.47523 | 1.17062 | 32677 ft | 443 kts | 136° |
| 2026-04-30 12:51 | 49.45258 | 1.20293 | 32911 ft | 442 kts | 136° |
| 2026-04-30 12:51 | 49.43004 | 1.23505 | 33164 ft | 441 kts | 137° |
| 2026-04-30 12:51 | 49.40750 | 1.26711 | 33385 ft | 441 kts | 137° |
| 2026-04-30 12:51 | 49.38498 | 1.29911 | 33603 ft | 441 kts | 137° |
| 2026-04-30 12:52 | 49.36279 | 1.33061 | 33813 ft | 441 kts | 137° |
| 2026-04-30 12:52 | 49.34025 | 1.36256 | 34046 ft | 439 kts | 136° |
| 2026-04-30 12:52 | 49.31777 | 1.39439 | 34252 ft | 439 kts | 136° |
| 2026-04-30 12:52 | 49.29529 | 1.42616 | 34395 ft | 439 kts | 136° |
| 2026-04-30 12:53 | 49.25033 | 1.48960 | 34598 ft | 442 kts | 137° |
| 2026-04-30 12:53 | 49.22761 | 1.52158 | 34741 ft | 442 kts | 137° |
| 2026-04-30 12:53 | 49.20496 | 1.55343 | 34890 ft | 442 kts | 137° |
| 2026-04-30 12:54 | 49.18224 | 1.58534 | 35027 ft | 443 kts | 137° |
| 2026-04-30 12:54 | 49.15981 | 1.61680 | 35124 ft | 444 kts | 137° |
| 2026-04-30 12:54 | 49.11416 | 1.68071 | 35136 ft | 445 kts | 137° |
| 2026-04-30 12:55 | 49.06850 | 1.74446 | 35145 ft | 443 kts | 137° |
| 2026-04-30 12:55 | 49.02277 | 1.80814 | 35138 ft | 445 kts | 137° |
| 2026-04-30 12:56 | 48.97721 | 1.87143 | 35137 ft | 445 kts | 137° |
| 2026-04-30 12:56 | 48.93126 | 1.93508 | 35151 ft | 445 kts | 137° |
| 2026-04-30 12:57 | 48.88559 | 1.99818 | 35151 ft | 445 kts | 137° |
| 2026-04-30 12:57 | 48.83964 | 2.06151 | 35157 ft | 445 kts | 137° |
| 2026-04-30 12:58 | 48.79365 | 2.12474 | 35157 ft | 445 kts | 137° |
| 2026-04-30 12:58 | 48.74764 | 2.18781 | 35154 ft | 445 kts | 137° |
| 2026-04-30 12:59 | 48.70191 | 2.25037 | 35157 ft | 446 kts | 137° |
| 2026-04-30 12:59 | 48.65566 | 2.31345 | 35157 ft | 446 kts | 137° |
| 2026-04-30 13:00 | 48.60986 | 2.37577 | 35155 ft | 446 kts | 137° |
| 2026-04-30 13:00 | 48.56358 | 2.43857 | 35150 ft | 446 kts | 137° |
| 2026-04-30 13:01 | 48.51732 | 2.50120 | 35151 ft | 446 kts | 137° |
| 2026-04-30 13:01 | 48.47106 | 2.56366 | 35126 ft | 447 kts | 137° |